createdAt,value
2017-09-21T00:03:13.717Z,94510.86
2017-09-21T00:06:12.762Z,94506.38
2017-09-21T00:08:40.408Z,94509.00
2017-09-21T00:11:09.343Z,94509.42
2017-09-21T00:13:37.138Z,94509.83
2017-09-21T00:16:12.195Z,94517.27
2017-09-21T00:18:42.881Z,94517.45
2017-09-21T00:21:14.948Z,94526.38
2017-09-21T00:29:51.755Z,94527.62
2017-09-21T00:32:24.865Z,94526.52
2017-09-21T00:34:54.252Z,94530.31
2017-09-21T00:37:25.010Z,94526.01
2017-09-21T00:39:54.950Z,94522.97
2017-09-21T00:44:58.003Z,94527.41
2017-09-21T00:53:55.209Z,94541.14
2017-09-21T01:05:22.612Z,94545.34
2017-09-21T01:15:44.578Z,94541.90
2017-09-21T01:20:49.853Z,94548.63
2017-09-21T01:26:00.407Z,94543.75
2017-09-21T01:28:42.091Z,94545.45
2017-09-21T01:36:31.136Z,94568.80
2017-09-21T01:39:06.587Z,94572.14
2017-09-21T01:44:41.663Z,94571.36
2017-09-21T01:47:22.720Z,94572.17
2017-09-21T01:55:30.955Z,94555.58
2017-09-21T01:58:06.255Z,94551.89
2017-09-21T02:00:42.033Z,94559.31
2017-09-21T02:09:45.754Z,94556.80
2017-09-21T02:12:13.809Z,94559.45
2017-09-21T02:14:41.379Z,94558.77
2017-09-21T02:19:42.762Z,94561.62
2017-09-21T02:24:45.743Z,94559.59
2017-09-21T02:29:57.028Z,94554.83
2017-09-21T02:35:00.446Z,94557.70
2017-09-21T02:37:35.494Z,94552.25
2017-09-21T02:45:22.528Z,94548.89
2017-09-21T02:47:50.646Z,94552.69
2017-09-21T02:50:23.164Z,94548.84
2017-09-21T02:52:50.855Z,94557.09
2017-09-21T02:55:27.988Z,94562.75
2017-09-21T02:57:56.011Z,94558.91
2017-09-21T03:00:24.235Z,94556.77
2017-09-21T03:02:52.207Z,94552.54
2017-09-21T03:05:23.627Z,94548.36
2017-09-21T03:08:04.830Z,94551.56
2017-09-21T03:10:32.737Z,94552.45
2017-09-21T03:13:05.460Z,94539.72
2017-09-21T03:15:33.584Z,94548.19
2017-09-21T03:18:01.340Z,94549.84
2017-09-21T03:20:29.131Z,94552.88
2017-09-21T03:22:59.665Z,94541.47
2017-09-21T03:25:28.156Z,94541.66
2017-09-21T03:30:30.359Z,94543.44
2017-09-21T03:33:04.163Z,94546.09
2017-09-21T03:38:23.399Z,94553.45
2017-09-21T03:40:51.724Z,94557.81
2017-09-21T03:43:27.325Z,94562.74
2017-09-21T03:48:36.643Z,94559.84
2017-09-21T03:51:04.657Z,94558.89
2017-09-21T03:53:34.141Z,94561.52
2017-09-21T03:56:01.901Z,94564.39
2017-09-21T03:58:46.189Z,94558.16
2017-09-21T04:01:16.477Z,94563.83
2017-09-21T04:03:44.525Z,94572.00
2017-09-21T04:06:14.395Z,94575.17
2017-09-21T04:08:43.176Z,94572.03
2017-09-21T04:11:13.618Z,94571.76
2017-09-21T04:13:47.852Z,94578.23
2017-09-21T04:16:21.607Z,94580.23
2017-09-21T04:18:51.229Z,94583.86
2017-09-21T04:21:24.432Z,94586.48
2017-09-21T04:23:59.491Z,94586.30
2017-09-21T04:31:45.060Z,94589.55
2017-09-21T04:34:14.280Z,94595.53
2017-09-21T04:39:43.741Z,94594.24
2017-09-21T04:42:12.898Z,94589.91
2017-09-21T04:44:49.074Z,94600.50
2017-09-21T04:51:05.830Z,94596.97
2017-09-21T04:53:33.955Z,94592.58
2017-09-21T04:56:03.177Z,94582.58
2017-09-21T05:04:00.321Z,94590.27
2017-09-21T05:06:30.287Z,94596.63
2017-09-21T05:08:58.403Z,94595.46
2017-09-21T05:14:00.613Z,94591.79
2017-09-21T06:35:09.730Z,94619.87
2017-09-21T06:37:39.481Z,94619.27
2017-09-21T06:40:12.364Z,94617.36
2017-09-21T06:43:09.559Z,94621.66
2017-09-21T06:48:24.663Z,94630.11
2017-09-21T06:58:45.014Z,94631.97
2017-09-21T07:06:20.016Z,94617.90
2017-09-21T07:09:26.260Z,94611.23
2017-09-21T07:20:33.278Z,94621.25
2017-09-21T07:23:13.232Z,94619.17
2017-09-21T07:42:59.481Z,94627.59
2017-09-21T08:35:41.742Z,94634.08
2017-09-21T12:54:16.810Z,94662.84
2017-09-21T13:52:49.694Z,94711.95
2017-09-21T13:55:17.387Z,94707.70
2017-09-21T13:57:45.167Z,94711.95
2017-09-21T14:00:12.883Z,94707.40
2017-09-21T14:02:40.362Z,94706.20
2017-09-21T14:05:07.847Z,94702.28
2017-09-21T14:07:35.422Z,94712.22
2017-09-21T14:10:03.028Z,94715.14
2017-09-21T14:15:06.773Z,94717.59
2017-09-21T14:17:34.250Z,94714.42
2017-09-21T14:20:04.608Z,94708.75
2017-09-21T14:22:40.927Z,94706.33
2017-09-21T14:25:08.474Z,94716.26
2017-09-21T14:27:35.916Z,94712.33
2017-09-21T14:30:04.096Z,94710.33
2017-09-21T14:32:34.977Z,94714.97
2017-09-21T14:35:02.594Z,94714.09
2017-09-21T14:37:30.189Z,94711.95
2017-09-21T14:42:32.641Z,94710.67
2017-09-21T14:45:00.899Z,94714.02
2017-09-21T14:47:32.253Z,94713.97
2017-09-21T14:50:00.200Z,94722.73
2017-09-21T14:52:27.713Z,94722.88
2017-09-21T14:54:55.378Z,94723.45
2017-09-21T14:57:22.896Z,94728.79
2017-09-21T14:59:50.445Z,94727.64
2017-09-21T15:02:18.084Z,94724.26
2017-09-21T15:04:46.649Z,94731.57
2017-09-21T15:07:14.125Z,94732.11
2017-09-21T15:09:41.634Z,94731.88
2017-09-21T15:12:09.180Z,94743.34
2017-09-21T15:14:36.618Z,94742.59
2017-09-21T15:17:04.250Z,94747.92
2017-09-21T15:19:31.714Z,94747.39
2017-09-21T15:21:59.205Z,94762.34
2017-09-21T15:24:26.697Z,94758.47
2017-09-21T15:26:54.131Z,94776.41
2017-09-21T15:29:21.795Z,94776.05
2017-09-21T15:31:49.743Z,94777.84
2017-09-21T15:34:17.571Z,94782.00
2017-09-21T15:36:46.966Z,94791.06
2017-09-21T15:39:14.459Z,94790.75
2017-09-21T15:41:41.964Z,94791.81
2017-09-21T15:44:09.416Z,94792.94
2017-09-21T15:46:38.942Z,94804.67
2017-09-21T16:12:58.080Z,94826.48
2017-09-21T16:15:26.441Z,94830.33
2017-09-21T16:17:53.664Z,94830.93
2017-09-21T16:20:22.386Z,94832.87
2017-09-21T16:22:55.863Z,94838.59
2017-09-21T16:25:23.560Z,94842.63
2017-09-21T16:27:50.816Z,94841.17
2017-09-21T16:30:18.003Z,94845.85
2017-09-21T16:32:45.309Z,94856.17
2017-09-21T16:35:12.503Z,94853.31
2017-09-21T16:37:39.846Z,94860.62
2017-09-21T16:40:07.079Z,94865.33
2017-09-21T16:42:34.323Z,94876.59
2017-09-21T16:45:01.543Z,94876.12
2017-09-21T16:47:28.722Z,94879.78
2017-09-21T16:49:55.997Z,94883.81
2017-09-21T16:52:23.234Z,94889.94
2017-09-21T16:54:50.505Z,94887.94
2017-09-21T16:57:17.711Z,94900.34
2017-09-21T16:59:44.986Z,94906.66
2017-09-21T17:02:12.171Z,94903.72
2017-09-21T17:04:39.397Z,94908.44
2017-09-21T17:07:06.642Z,94919.86
2017-09-21T17:09:33.812Z,94917.77
2017-09-21T17:12:00.982Z,94919.51
2017-09-21T17:14:28.293Z,94928.26
2017-09-21T17:16:55.476Z,94926.36
2017-09-21T17:19:22.852Z,94926.16
2017-09-21T17:21:50.092Z,94930.89
2017-09-21T17:24:17.332Z,94936.22
2017-09-21T17:26:44.544Z,94935.99
2017-09-21T17:29:11.752Z,94942.45
2017-09-21T17:31:38.952Z,94941.16
2017-09-21T17:34:06.149Z,94952.48
2017-09-21T17:36:33.480Z,94954.67
2017-09-21T17:39:00.701Z,94957.46
2017-09-21T17:41:27.888Z,94956.29
2017-09-21T17:43:55.326Z,94964.20
2017-09-21T17:46:22.598Z,94964.90
2017-09-21T17:48:53.898Z,94967.08
2017-09-21T17:51:21.583Z,94967.36
2017-09-21T17:53:50.203Z,94969.13
2017-09-21T17:56:17.435Z,94974.73
2017-09-21T17:58:44.684Z,94972.53
2017-09-21T18:01:12.004Z,94978.33
2017-09-21T18:03:39.226Z,94976.09
2017-09-21T18:06:06.662Z,94981.29
2017-09-21T18:08:33.811Z,94976.41
2017-09-21T18:11:01.031Z,94974.53
2017-09-21T18:13:28.233Z,94974.15
2017-09-21T18:15:55.462Z,94982.78
2017-09-21T18:18:22.721Z,94985.31
2017-09-21T18:20:49.958Z,94985.11
2017-09-21T18:23:17.239Z,94988.97
2017-09-21T18:25:44.418Z,94986.94
2017-09-21T18:28:11.645Z,94985.82
2017-09-21T18:30:44.891Z,94986.61
2017-09-21T18:33:12.119Z,94984.41
2017-09-21T18:35:42.602Z,94981.17
2017-09-21T18:38:09.807Z,94981.23
2017-09-21T18:40:37.046Z,94982.75
2017-09-21T18:43:04.195Z,94978.08
2017-09-21T18:45:31.513Z,94973.17
2017-09-21T18:47:58.706Z,94971.48
2017-09-21T18:50:25.906Z,94971.18
2017-09-21T18:52:53.204Z,94974.62
2017-09-21T19:01:08.946Z,94979.07
2017-09-21T19:03:36.734Z,94979.85
2017-09-21T19:06:04.004Z,94981.77
2017-09-21T19:08:31.283Z,94987.14
2017-09-21T19:10:58.483Z,94989.45
2017-09-21T19:13:25.759Z,94992.52
2017-09-21T19:15:52.962Z,94987.58
2017-09-21T19:18:20.185Z,94992.91
2017-09-21T19:20:47.523Z,94990.28
2017-09-21T19:23:14.771Z,94997.49
2017-09-21T19:25:42.054Z,94992.96
2017-09-21T19:28:09.273Z,94991.88
2017-09-21T19:30:41.647Z,94997.19
2017-09-21T19:33:08.907Z,94996.27
2017-09-21T19:35:42.692Z,94996.66
2017-09-21T19:38:10.042Z,94995.48
2017-09-21T19:40:37.217Z,94987.67
2017-09-21T19:43:04.698Z,94984.80
2017-09-21T19:45:31.887Z,94979.67
2017-09-21T19:47:59.315Z,94987.08
2017-09-21T19:56:06.474Z,94983.64
2017-09-21T19:58:33.690Z,94988.27
2017-09-21T20:01:01.003Z,94985.78
2017-09-21T20:03:28.201Z,94991.34
2017-09-21T20:05:55.480Z,94989.66
2017-09-21T20:08:22.734Z,94987.07
2017-09-21T20:10:49.946Z,94980.63
2017-09-21T20:13:17.154Z,94983.34
2017-09-21T20:15:44.376Z,94984.53
2017-09-21T20:18:11.664Z,94983.81
2017-09-21T20:20:39.504Z,94981.55
2017-09-21T20:23:06.706Z,94982.17
2017-09-21T20:25:33.919Z,94978.97
2017-09-21T20:28:07.323Z,94971.59
2017-09-21T20:30:34.650Z,94977.70
2017-09-21T20:33:01.859Z,94971.30
2017-09-21T20:35:29.097Z,94970.75
2017-09-21T20:37:56.235Z,94966.95
2017-09-21T20:40:23.515Z,94969.28
2017-09-21T20:42:50.677Z,94976.50
2017-09-21T20:45:17.918Z,94972.94
2017-09-21T20:47:45.163Z,94968.79
2017-09-21T20:50:12.377Z,94968.25
2017-09-21T20:52:39.629Z,94971.14
2017-09-21T20:55:06.933Z,94970.39
2017-09-21T20:57:34.158Z,94972.88
2017-09-21T21:00:01.431Z,94970.63
2017-09-21T21:02:28.634Z,94964.39
2017-09-21T21:04:55.978Z,94964.41
2017-09-21T21:07:23.275Z,94964.24
2017-09-21T21:09:50.608Z,94969.19
2017-09-21T21:12:17.785Z,94969.02
2017-09-21T21:14:44.995Z,94964.67
2017-09-21T21:17:12.226Z,94962.04
2017-09-21T21:19:39.435Z,94969.30
2017-09-21T21:22:06.648Z,94970.05
2017-09-21T21:24:33.942Z,94965.33
2017-09-21T21:27:01.252Z,94963.45
2017-09-21T21:29:28.458Z,94964.23
2017-09-21T21:31:55.783Z,94960.65
2017-09-21T21:34:23.235Z,94965.41
2017-09-21T21:36:50.517Z,94964.27
2017-09-21T21:39:19.213Z,94961.22
2017-09-21T21:41:51.862Z,94953.31
2017-09-21T21:44:19.059Z,94963.16
2017-09-21T22:58:36.924Z,94965.66
2017-09-21T23:01:04.114Z,94963.94
2017-09-21T23:03:31.353Z,94956.98
2017-09-21T23:05:58.582Z,94966.44
2017-09-21T23:08:25.753Z,94965.13
2017-09-21T23:10:52.920Z,94960.21
2017-09-21T23:13:20.182Z,94960.98
2017-09-21T23:15:47.465Z,94960.44
2017-09-21T23:18:14.851Z,94959.50
2017-09-21T23:20:42.136Z,94949.28
2017-09-21T23:23:09.384Z,94950.44
2017-09-21T23:25:36.570Z,94960.66
2017-09-21T23:28:03.751Z,94955.37
2017-09-21T23:30:31.165Z,94954.23
2017-09-21T23:32:58.437Z,94955.39
2017-09-21T23:35:25.752Z,94959.58
2017-09-21T23:37:52.986Z,94956.00
2017-09-21T23:40:20.333Z,94957.50
2017-09-21T23:42:47.611Z,94955.25
2017-09-21T23:45:14.952Z,94953.55
2017-09-21T23:47:42.188Z,94947.31
2017-09-21T23:50:09.419Z,94946.19
2017-09-21T23:52:36.714Z,94949.41
2017-09-21T23:55:04.099Z,94948.48
2017-09-21T23:57:31.314Z,94946.04
2017-09-21T23:59:58.533Z,94947.38
